createdAt,value
2023-05-10T00:01:26.131Z,7.43
2023-05-10T00:03:54.261Z,7.75
2023-05-10T00:06:22.454Z,7.45
2023-05-10T00:08:50.574Z,7.83
2023-05-10T00:11:19.617Z,7.64
2023-05-10T00:13:48.820Z,7.64
2023-05-10T00:16:18.211Z,7.59
2023-05-10T00:18:46.190Z,7.49
2023-05-10T00:21:14.246Z,7.40
2023-05-10T00:23:42.460Z,7.15
2023-05-10T00:26:10.424Z,7.49
2023-05-10T00:28:38.511Z,7.31
2023-05-10T00:31:06.609Z,7.28
2023-05-10T00:33:35.915Z,7.30
2023-05-10T00:36:03.952Z,7.18
2023-05-10T00:38:32.066Z,7.25
2023-05-10T00:41:00.195Z,7.22
2023-05-10T00:43:28.272Z,7.40
2023-05-10T00:45:56.859Z,7.25
2023-05-10T00:48:25.200Z,7.37
2023-05-10T00:50:54.709Z,7.30
2023-05-10T00:53:23.111Z,7.47
2023-05-10T00:55:52.030Z,7.53
2023-05-10T00:58:20.300Z,7.33
2023-05-10T01:00:49.435Z,7.26
2023-05-10T01:03:18.263Z,7.02
2023-05-10T01:05:46.328Z,7.13
2023-05-10T01:08:15.983Z,6.92
2023-05-10T01:10:45.101Z,6.95
2023-05-10T01:13:14.425Z,7.18
2023-05-10T01:15:43.065Z,7.10
2023-05-10T01:18:11.570Z,6.86
2023-05-10T01:20:49.977Z,6.59
2023-05-10T01:23:45.913Z,6.99
2023-05-10T01:26:31.538Z,6.73
2023-05-10T01:29:20.970Z,6.75
2023-05-10T01:32:22.853Z,6.44
2023-05-10T01:35:01.644Z,6.47
2023-05-10T01:37:38.869Z,6.45
2023-05-10T01:40:15.649Z,6.54
2023-05-10T01:42:52.281Z,6.45
2023-05-10T01:45:27.314Z,6.03
2023-05-10T01:48:04.544Z,6.29
2023-05-10T01:50:34.484Z,6.05
2023-05-10T01:53:04.562Z,5.81
2023-05-10T01:55:36.937Z,6.14
2023-05-10T01:58:08.927Z,5.80
2023-05-10T02:00:38.793Z,6.24
2023-05-10T02:03:10.820Z,6.18
2023-05-10T02:05:39.739Z,6.18
2023-05-10T02:08:09.000Z,6.15
2023-05-10T02:10:37.764Z,6.00
2023-05-10T02:13:08.269Z,6.08
2023-05-10T02:15:38.136Z,5.79
2023-05-10T02:18:07.808Z,5.83
2023-05-10T02:20:37.411Z,5.94
2023-05-10T02:23:06.623Z,5.88
2023-05-10T02:25:35.573Z,5.77
2023-05-10T02:28:05.923Z,5.80
2023-05-10T02:30:35.899Z,5.78
2023-05-10T02:33:06.269Z,5.77
2023-05-10T02:35:34.788Z,5.79
2023-05-10T02:38:04.913Z,5.66
2023-05-10T02:40:34.710Z,5.78
2023-05-10T02:43:04.805Z,5.68
2023-05-10T02:45:34.390Z,5.75
2023-05-10T02:48:02.723Z,6.05
2023-05-10T02:50:32.844Z,5.88
2023-05-10T02:53:08.716Z,5.83
2023-05-10T02:55:42.709Z,5.94
2023-05-10T02:58:11.155Z,6.06
2023-05-10T03:00:39.219Z,6.27
2023-05-10T03:03:07.978Z,6.33
2023-05-10T03:05:36.098Z,6.47
2023-05-10T03:08:07.170Z,6.49
2023-05-10T03:10:39.588Z,6.49
2023-05-10T03:13:15.126Z,6.58
2023-05-10T03:15:52.956Z,6.70
2023-05-10T03:18:25.343Z,6.76
2023-05-10T03:20:59.924Z,6.81
2023-05-10T03:23:36.303Z,6.65
2023-05-10T03:26:06.913Z,6.98
2023-05-10T03:28:36.330Z,6.96
2023-05-10T03:31:06.605Z,7.03
2023-05-10T03:33:34.695Z,7.21
2023-05-10T03:36:02.648Z,7.34
2023-05-10T03:38:32.055Z,7.38
2023-05-10T03:41:00.151Z,7.33
2023-05-10T03:43:29.794Z,7.37
2023-05-10T03:45:57.808Z,7.53
2023-05-10T03:48:26.051Z,7.52
2023-05-10T03:50:53.915Z,7.71
2023-05-10T03:53:22.096Z,7.83
2023-05-10T03:55:54.463Z,7.91
2023-05-10T03:58:22.969Z,7.87
2023-05-10T04:00:50.960Z,8.02
2023-05-10T04:03:22.169Z,8.24
2023-05-10T04:05:50.461Z,8.29
2023-05-10T04:08:18.468Z,8.35
2023-05-10T04:10:46.481Z,8.52
2023-05-10T04:13:16.153Z,8.66
2023-05-10T04:15:44.739Z,8.69
2023-05-10T04:18:13.117Z,8.79
2023-05-10T04:20:41.125Z,8.94
2023-05-10T04:23:09.043Z,9.05
2023-05-10T04:25:38.338Z,9.24
2023-05-10T04:28:06.530Z,9.29
2023-05-10T04:30:35.917Z,9.33
2023-05-10T04:33:04.053Z,9.48
2023-05-10T04:35:32.057Z,9.59
2023-05-10T04:37:59.967Z,9.66
2023-05-10T04:40:28.365Z,9.80
2023-05-10T04:42:56.462Z,9.98
2023-05-10T04:45:24.556Z,10.11
2023-05-10T04:47:54.164Z,10.09
2023-05-10T04:50:22.104Z,10.19
2023-05-10T04:52:50.093Z,9.99
2023-05-10T04:55:18.414Z,10.37
2023-05-10T04:57:46.656Z,10.52
2023-05-10T05:00:15.777Z,10.64
2023-05-10T05:02:48.382Z,10.80
2023-05-10T05:05:18.013Z,10.94
2023-05-10T05:07:47.883Z,10.93
2023-05-10T05:10:16.497Z,11.03
2023-05-10T05:12:44.760Z,11.58
2023-05-10T05:15:13.292Z,12.48
2023-05-10T05:17:41.384Z,12.74
2023-05-10T05:20:10.344Z,13.29
2023-05-10T05:22:39.945Z,13.72
2023-05-10T05:25:08.875Z,13.91
2023-05-10T05:27:36.861Z,13.41
2023-05-10T05:30:05.465Z,13.46
2023-05-10T05:32:36.536Z,13.46
2023-05-10T05:35:04.828Z,13.36
2023-05-10T05:37:32.785Z,13.14
2023-05-10T05:40:03.116Z,13.10
2023-05-10T05:42:30.873Z,13.02
2023-05-10T05:44:58.877Z,13.01
2023-05-10T05:47:27.089Z,12.96
2023-05-10T05:49:55.165Z,13.05
2023-05-10T05:52:23.362Z,13.16
2023-05-10T05:54:51.360Z,13.44
2023-05-10T05:57:20.750Z,13.57
2023-05-10T05:59:49.382Z,13.58
2023-05-10T06:02:17.675Z,13.74
2023-05-10T06:04:45.640Z,13.77
2023-05-10T06:07:13.683Z,13.96
2023-05-10T06:09:41.739Z,13.88
2023-05-10T06:12:09.664Z,13.99
2023-05-10T06:14:39.013Z,14.14
2023-05-10T06:17:10.826Z,14.32
2023-05-10T06:19:38.938Z,14.54
2023-05-10T06:22:06.911Z,14.76
2023-05-10T06:24:34.956Z,14.81
2023-05-10T06:27:03.285Z,14.88
2023-05-10T06:29:31.253Z,14.91
2023-05-10T06:32:00.886Z,14.86
2023-05-10T06:34:29.064Z,15.26
2023-05-10T06:36:57.011Z,15.21
2023-05-10T06:39:25.171Z,15.17
2023-05-10T06:41:53.379Z,15.22
2023-05-10T06:44:21.263Z,15.25
2023-05-10T06:46:49.483Z,15.33
2023-05-10T06:49:19.170Z,15.71
2023-05-10T06:51:47.283Z,15.84
2023-05-10T06:54:15.447Z,15.66
2023-05-10T06:56:43.679Z,15.69
2023-05-10T06:59:11.753Z,15.87
2023-05-10T07:01:39.852Z,15.85
2023-05-10T07:04:08.815Z,16.01
2023-05-10T07:06:38.191Z,16.09
2023-05-10T07:09:06.281Z,16.29
2023-05-10T07:11:34.394Z,16.49
2023-05-10T07:14:02.381Z,16.75
2023-05-10T07:16:30.370Z,16.42
2023-05-10T07:18:58.384Z,16.80
2023-05-10T07:21:29.608Z,16.77
2023-05-10T07:23:59.358Z,16.79
2023-05-10T07:26:27.242Z,16.53
2023-05-10T07:28:55.186Z,16.06
2023-05-10T07:31:23.348Z,16.41
2023-05-10T07:33:51.357Z,16.42
2023-05-10T07:36:19.349Z,16.72
2023-05-10T07:38:47.481Z,16.86
2023-05-10T07:41:16.872Z,17.35
2023-05-10T07:43:44.896Z,17.60
2023-05-10T07:46:13.073Z,17.58
2023-05-10T07:48:41.124Z,17.59
2023-05-10T07:51:10.446Z,17.53
2023-05-10T07:53:39.399Z,17.68
2023-05-10T07:59:04.982Z,17.98
2023-05-10T08:01:33.746Z,18.15
2023-05-10T08:04:02.958Z,18.15
2023-05-10T08:06:31.483Z,18.40
2023-05-10T08:08:59.496Z,18.37
2023-05-10T08:11:28.732Z,18.54
2023-05-10T08:13:56.872Z,18.39
2023-05-10T08:16:26.160Z,18.48
2023-05-10T08:18:56.365Z,18.73
2023-05-10T08:21:24.667Z,18.61
2023-05-10T08:23:52.618Z,18.89
2023-05-10T08:26:22.020Z,19.02
2023-05-10T08:28:50.157Z,19.09
2023-05-10T08:31:19.070Z,18.90
2023-05-10T08:33:48.545Z,19.03
2023-05-10T08:36:20.854Z,19.12
2023-05-10T08:38:50.241Z,18.62
2023-05-10T08:41:19.352Z,18.90
2023-05-10T08:43:48.197Z,19.19
2023-05-10T08:46:19.413Z,19.39
2023-05-10T08:48:49.895Z,19.30
2023-05-10T08:51:20.894Z,19.28
2023-05-10T08:53:49.694Z,19.34
2023-05-10T08:56:18.919Z,19.56
2023-05-10T08:58:47.060Z,19.29
2023-05-10T09:01:17.292Z,19.23
2023-05-10T09:03:45.586Z,19.58
2023-05-10T09:06:15.305Z,19.69
2023-05-10T09:08:44.265Z,19.75
2023-05-10T09:11:13.221Z,19.40
2023-05-10T09:13:43.999Z,19.34
2023-05-10T09:16:21.325Z,19.38
2023-05-10T09:18:50.749Z,19.67
2023-05-10T09:21:21.684Z,19.70
2023-05-10T09:23:51.271Z,19.75
2023-05-10T09:26:19.419Z,19.67
2023-05-10T09:28:54.610Z,19.61
2023-05-10T09:31:22.857Z,19.47
2023-05-10T09:33:52.165Z,20.12
2023-05-10T09:36:21.777Z,20.27
2023-05-10T09:38:52.748Z,20.26
2023-05-10T09:41:22.273Z,20.32
2023-05-10T09:43:50.588Z,20.34
2023-05-10T09:46:18.900Z,20.70
2023-05-10T09:48:48.740Z,19.81
2023-05-10T09:51:25.370Z,19.96
2023-05-10T09:54:12.128Z,20.46
2023-05-10T09:56:41.666Z,20.51
2023-05-10T09:59:11.695Z,20.47
2023-05-10T10:01:40.268Z,20.35
2023-05-10T10:04:09.678Z,20.69
2023-05-10T10:06:40.066Z,20.98
2023-05-10T10:09:08.882Z,20.75
2023-05-10T10:11:38.358Z,20.81
2023-05-10T10:14:06.859Z,20.58
2023-05-10T10:16:39.948Z,20.81
2023-05-10T10:19:14.570Z,20.98
2023-05-10T10:21:44.137Z,20.63
2023-05-10T10:24:11.982Z,20.43
2023-05-10T10:26:42.673Z,20.05
2023-05-10T10:29:20.922Z,20.33
2023-05-10T10:31:56.778Z,20.43
2023-05-10T10:34:29.430Z,20.69
2023-05-10T10:36:59.993Z,20.43
2023-05-10T10:39:29.259Z,20.65
2023-05-10T10:41:58.553Z,21.02
2023-05-10T10:44:28.579Z,21.04
2023-05-10T10:47:07.035Z,21.04
2023-05-10T10:49:39.524Z,21.01
2023-05-10T10:52:23.928Z,21.07
2023-05-10T10:54:59.884Z,20.83
2023-05-10T10:57:28.840Z,21.13
2023-05-10T11:00:22.121Z,20.88
2023-05-10T11:02:54.828Z,21.01
2023-05-10T11:05:27.807Z,20.98
2023-05-10T11:07:58.342Z,21.19
2023-05-10T11:10:27.561Z,21.29
2023-05-10T11:13:01.983Z,20.91
2023-05-10T11:15:34.166Z,21.17
2023-05-10T11:18:18.262Z,21.21
2023-05-10T11:20:47.789Z,20.97
2023-05-10T11:23:18.945Z,20.78
2023-05-10T11:25:48.265Z,20.98
2023-05-10T11:28:16.891Z,21.18
2023-05-10T11:30:46.691Z,20.58
2023-05-10T11:33:19.225Z,20.40
2023-05-10T11:35:47.219Z,20.50
2023-05-10T11:38:16.494Z,20.70
2023-05-10T11:40:44.829Z,20.95
2023-05-10T11:43:13.429Z,21.29
2023-05-10T11:45:43.505Z,21.03
2023-05-10T11:48:11.866Z,20.62
2023-05-10T11:50:39.920Z,20.55
2023-05-10T11:53:07.954Z,20.71
2023-05-10T11:55:37.695Z,20.59
2023-05-10T11:58:06.046Z,20.63
2023-05-10T12:00:34.403Z,20.70
2023-05-10T12:03:04.284Z,20.78
2023-05-10T12:05:35.153Z,20.93
2023-05-10T12:08:16.812Z,21.07
2023-05-10T12:10:46.205Z,20.16
2023-05-10T12:13:16.179Z,20.45
2023-05-10T12:15:45.355Z,20.35
2023-05-10T12:18:14.652Z,20.68
2023-05-10T12:20:43.566Z,20.66
2023-05-10T12:23:12.295Z,20.44
2023-05-10T12:25:41.098Z,20.24
2023-05-10T12:28:11.703Z,20.00
2023-05-10T12:30:40.430Z,20.02
2023-05-10T12:33:14.370Z,19.97
2023-05-10T12:35:51.237Z,20.06
2023-05-10T12:38:27.992Z,19.94
2023-05-10T12:40:56.075Z,19.91
2023-05-10T12:43:25.540Z,20.02
2023-05-10T12:45:53.699Z,20.01
2023-05-10T12:48:22.012Z,19.93
2023-05-10T12:50:50.170Z,20.07
2023-05-10T12:53:18.934Z,19.98
2023-05-10T12:55:46.913Z,19.69
2023-05-10T12:58:31.510Z,19.50
2023-05-10T13:01:05.279Z,20.04
2023-05-10T13:03:33.515Z,19.91
2023-05-10T13:06:01.534Z,19.72
2023-05-10T13:08:34.331Z,20.15
2023-05-10T13:11:02.829Z,19.71
2023-05-10T13:13:30.839Z,19.37
2023-05-10T13:15:58.849Z,19.71
2023-05-10T13:18:28.507Z,19.44
2023-05-10T13:20:56.778Z,19.88
2023-05-10T13:23:24.844Z,20.11
2023-05-10T13:25:53.123Z,19.91
2023-05-10T13:28:21.123Z,19.93
2023-05-10T13:30:49.108Z,19.73
2023-05-10T13:33:17.166Z,20.00
2023-05-10T13:35:46.632Z,19.66
2023-05-10T13:38:14.938Z,19.70
2023-05-10T13:40:43.030Z,19.63
2023-05-10T13:43:11.215Z,19.75
2023-05-10T13:45:40.143Z,19.74
2023-05-10T13:48:08.285Z,19.59
2023-05-10T13:50:36.272Z,19.60
2023-05-10T13:53:06.530Z,19.84
2023-05-10T13:55:34.668Z,19.46
2023-05-10T13:58:02.646Z,19.41
2023-05-10T14:00:30.767Z,19.58
2023-05-10T14:02:58.931Z,19.36
2023-05-10T14:05:27.020Z,19.54
2023-05-10T14:07:55.306Z,19.65
2023-05-10T14:10:24.700Z,19.37
2023-05-10T14:12:52.826Z,19.43
2023-05-10T14:15:20.935Z,19.50
2023-05-10T14:17:48.984Z,19.40
2023-05-10T14:20:17.198Z,19.15
2023-05-10T14:22:45.196Z,19.43
2023-05-10T14:25:13.744Z,19.08
2023-05-10T14:27:43.125Z,18.88
2023-05-10T14:30:12.094Z,18.82
2023-05-10T14:32:40.337Z,19.41
2023-05-10T14:35:10.831Z,19.04
2023-05-10T14:37:40.954Z,19.08
2023-05-10T14:40:10.355Z,19.20
2023-05-10T14:42:38.373Z,19.11
2023-05-10T14:45:09.551Z,18.79
2023-05-10T14:47:37.505Z,18.82
2023-05-10T14:50:06.121Z,18.57
2023-05-10T14:52:34.542Z,18.41
2023-05-10T14:55:02.548Z,18.85
2023-05-10T14:57:30.796Z,19.07
2023-05-10T14:59:58.989Z,19.05
2023-05-10T15:02:28.659Z,19.12
2023-05-10T15:04:58.427Z,19.52
2023-05-10T15:07:27.105Z,19.31
2023-05-10T15:09:55.184Z,19.38
2023-05-10T15:12:23.077Z,19.31
2023-05-10T15:14:51.173Z,19.32
2023-05-10T15:17:19.160Z,19.01
2023-05-10T15:19:50.167Z,19.32
2023-05-10T15:22:18.376Z,19.51
2023-05-10T15:24:46.311Z,19.37
2023-05-10T15:27:14.381Z,19.63
2023-05-10T15:29:42.643Z,19.58
2023-05-10T15:32:10.585Z,19.76
2023-05-10T15:34:38.541Z,20.14
2023-05-10T15:37:08.144Z,20.25
2023-05-10T15:39:36.350Z,19.99
2023-05-10T15:42:04.962Z,19.44
2023-05-10T15:44:32.918Z,19.65
2023-05-10T15:47:00.936Z,19.50
2023-05-10T15:49:28.936Z,19.35
2023-05-10T15:51:56.969Z,19.51
2023-05-10T15:54:26.553Z,19.95
2023-05-10T15:56:55.281Z,19.43
2023-05-10T15:59:23.352Z,19.31
2023-05-10T16:01:52.008Z,19.44
2023-05-10T16:04:20.076Z,19.62
2023-05-10T16:06:48.161Z,19.81
2023-05-10T16:09:16.804Z,19.56
2023-05-10T16:11:46.397Z,19.30
2023-05-10T16:14:14.544Z,19.21
2023-05-10T16:16:43.305Z,18.75
2023-05-10T16:19:11.367Z,18.59
2023-05-10T16:21:39.439Z,18.97
2023-05-10T16:24:07.768Z,18.64
2023-05-10T16:26:40.989Z,18.58
2023-05-10T16:29:10.692Z,19.03
2023-05-10T16:31:38.612Z,19.11
2023-05-10T16:34:06.550Z,19.72
2023-05-10T16:36:35.308Z,20.28
2023-05-10T16:39:03.982Z,19.76
2023-05-10T16:41:35.185Z,20.18
2023-05-10T16:44:03.711Z,20.12
2023-05-10T16:46:33.255Z,20.31
2023-05-10T16:49:01.349Z,19.94
2023-05-10T16:51:29.528Z,19.12
2023-05-10T16:53:57.476Z,19.14
2023-05-10T16:56:27.521Z,19.12
2023-05-10T16:58:55.605Z,18.94
2023-05-10T17:01:26.278Z,19.24
2023-05-10T17:03:56.558Z,19.47
2023-05-10T17:06:24.585Z,19.36
2023-05-10T17:08:52.642Z,19.45
2023-05-10T17:11:21.966Z,19.55
2023-05-10T17:13:49.917Z,18.63
2023-05-10T17:16:17.968Z,18.72
2023-05-10T17:18:46.644Z,19.12
2023-05-10T17:21:16.455Z,19.55
2023-05-10T17:23:44.415Z,19.11
2023-05-10T17:26:13.076Z,19.65
2023-05-10T17:28:40.947Z,20.25
2023-05-10T17:31:08.981Z,20.56
2023-05-10T18:13:46.418Z,13.91
2023-05-10T18:16:14.583Z,13.89
2023-05-10T18:18:42.568Z,13.81
2023-05-10T18:21:11.187Z,13.71
2023-05-10T18:23:39.212Z,13.66
2023-05-10T18:26:08.731Z,13.57
2023-05-10T18:28:39.769Z,13.41
2023-05-10T18:31:12.631Z,13.28
2023-05-10T18:33:41.623Z,13.28
2023-05-10T18:36:09.696Z,13.35
2023-05-10T18:38:38.719Z,13.21
2023-05-10T18:41:07.449Z,12.94
2023-05-10T18:43:35.340Z,12.69
2023-05-10T18:46:03.343Z,12.58
2023-05-10T18:48:32.712Z,12.32
2023-05-10T18:51:00.892Z,12.40
2023-05-10T18:53:28.883Z,12.21
2023-05-10T18:55:58.249Z,12.11
2023-05-10T18:58:26.324Z,11.86
2023-05-10T19:00:55.966Z,12.05
2023-05-10T19:03:24.176Z,11.62
2023-05-10T19:05:53.469Z,12.05
2023-05-10T19:08:24.652Z,11.64
2023-05-10T19:10:52.689Z,11.89
2023-05-10T19:13:22.424Z,11.63
2023-05-10T19:16:03.022Z,11.48
2023-05-10T19:18:33.273Z,11.78
2023-05-10T19:21:04.792Z,11.57
2023-05-10T19:23:33.724Z,11.31
2023-05-10T19:26:04.665Z,11.33
2023-05-10T19:28:34.087Z,10.98
2023-05-10T19:31:05.045Z,11.17
2023-05-10T19:33:38.435Z,11.31
2023-05-10T19:36:09.185Z,11.07
2023-05-10T19:38:38.300Z,10.87
2023-05-10T19:41:06.795Z,10.99
2023-05-10T19:43:36.406Z,10.59
2023-05-10T19:46:04.660Z,10.49
2023-05-10T19:48:33.123Z,10.55
2023-05-10T19:51:02.429Z,10.83
2023-05-10T19:53:34.030Z,10.65
2023-05-10T19:56:06.699Z,10.40
2023-05-10T19:58:35.294Z,10.29
2023-05-10T20:01:03.920Z,10.32
2023-05-10T20:03:33.618Z,10.44
2023-05-10T20:06:05.384Z,10.39
2023-05-10T20:08:34.862Z,10.51
2023-05-10T20:11:03.958Z,10.49
2023-05-10T20:13:32.034Z,10.34
2023-05-10T20:16:00.719Z,9.93
2023-05-10T20:18:28.907Z,9.99
2023-05-10T20:20:59.491Z,9.93
2023-05-10T20:23:29.680Z,10.21
2023-05-10T20:25:59.891Z,9.90
2023-05-10T20:28:28.420Z,10.05
2023-05-10T20:30:58.511Z,9.85
2023-05-10T20:33:26.959Z,9.90
2023-05-10T20:35:57.869Z,9.76
2023-05-10T20:38:26.001Z,9.79
2023-05-10T20:40:54.309Z,9.70
2023-05-10T20:43:23.718Z,9.69
2023-05-10T20:45:51.777Z,9.48
2023-05-10T20:48:20.021Z,9.60
2023-05-10T20:50:47.959Z,9.18
2023-05-10T20:53:15.897Z,9.25
2023-05-10T20:55:44.132Z,9.30
2023-05-10T20:58:12.090Z,8.94
2023-05-10T21:00:43.807Z,8.55
2023-05-10T21:03:13.563Z,8.94
2023-05-10T21:05:47.392Z,8.84
2023-05-10T21:08:15.552Z,8.85
2023-05-10T21:10:46.389Z,8.85
2023-05-10T21:13:14.399Z,8.65
2023-05-10T21:15:43.894Z,8.69
2023-05-10T21:18:11.822Z,8.57
2023-05-10T21:20:39.849Z,8.65
2023-05-10T21:23:07.896Z,8.65
2023-05-10T21:25:39.179Z,8.42
2023-05-10T21:28:07.201Z,8.57
2023-05-10T21:30:35.757Z,8.57
2023-05-10T21:33:07.914Z,8.56
2023-05-10T21:35:35.954Z,8.42
2023-05-10T21:38:04.010Z,8.42
2023-05-10T21:40:31.920Z,8.39
2023-05-10T21:42:59.938Z,8.32
2023-05-10T21:45:31.673Z,8.03
2023-05-10T21:47:59.985Z,8.27
2023-05-10T21:50:30.060Z,8.17
2023-05-10T21:52:58.243Z,8.29
2023-05-10T21:55:26.352Z,8.27
2023-05-10T21:57:55.796Z,8.26
2023-05-10T22:00:24.003Z,8.07
2023-05-10T22:02:52.000Z,7.83
2023-05-10T22:05:20.064Z,8.03
2023-05-10T22:07:49.624Z,7.71
2023-05-10T22:10:17.863Z,7.77
2023-05-10T22:12:46.188Z,7.73
2023-05-10T22:15:14.289Z,7.67
2023-05-10T22:17:42.373Z,7.72
2023-05-10T22:20:11.165Z,7.58
2023-05-10T22:22:39.262Z,7.67
2023-05-10T22:25:09.443Z,7.70
2023-05-10T22:27:37.783Z,7.60
2023-05-10T22:30:07.017Z,7.66
2023-05-10T22:32:35.204Z,7.45
2023-05-10T22:35:03.368Z,7.51
2023-05-10T22:37:31.568Z,7.58
2023-05-10T22:40:05.058Z,7.68
2023-05-10T22:42:35.075Z,7.70
2023-05-10T22:45:03.154Z,7.44
2023-05-10T22:47:31.219Z,7.57
2023-05-10T22:49:59.437Z,7.63
2023-05-10T22:52:27.370Z,7.17
2023-05-10T22:54:55.706Z,7.60
2023-05-10T22:57:23.723Z,7.44
2023-05-10T22:59:53.747Z,7.26
2023-05-10T23:02:24.501Z,7.64
2023-05-10T23:04:52.536Z,7.53
2023-05-10T23:07:22.215Z,7.51
2023-05-10T23:09:50.236Z,7.28
2023-05-10T23:12:18.267Z,7.17
2023-05-10T23:14:49.397Z,6.81
2023-05-10T23:17:19.019Z,6.34
2023-05-10T23:19:47.228Z,6.07
2023-05-10T23:22:17.557Z,6.05
2023-05-10T23:24:45.644Z,5.74
2023-05-10T23:27:14.583Z,5.71
2023-05-10T23:29:45.205Z,6.48
2023-05-10T23:32:13.325Z,6.96
2023-05-10T23:34:42.790Z,6.67
2023-05-10T23:37:13.441Z,6.40
2023-05-10T23:39:41.595Z,6.43
2023-05-10T23:42:09.692Z,5.90
2023-05-10T23:44:37.589Z,6.04
2023-05-10T23:47:06.208Z,6.24
2023-05-10T23:49:34.522Z,6.37
2023-05-10T23:52:04.019Z,6.48
2023-05-10T23:54:32.208Z,6.06
2023-05-10T23:57:00.204Z,6.29
2023-05-10T23:59:31.316Z,6.18
